PWSweather.com
Personal Weather Stations
Station Observations
IPODRAVI2
Croatia, Trnovec BartoloveckiHR

CroatiaTrnovec BartoloveckiHR

Lat: 46.2947, Lon: 16.3989

Elevation: 535

Station Type: Davis Vantage Pro2 plus

http://www.pljusak.com/trnovec1/wx.html

High Low Average
Temperature 76.1°F24.5°F 60.9°F16.1°F 68.1°F20.1°F
Dew Point 63.5°F17.5°F 55.8°F13.2°F 59.6°F15.3°F
Winds 9.2 mph NNE14.8 mph NNE Calm Calm 2.0 mph 3.2 mph
Wind Gusts 12.7 mph20.4 mph -- 3.7 mph6.0 mph
Humidity 93% 51% 76%
Pressure 29.99 in1015.60 in 29.85 in1010.80 in -
Precipitation 0.48 in12.20 in - -
Hour Temp Dew Point Humidity Winds Wind Gusts Pressure Precip Precip Rate Daily Precip Total
12:00 AM 67.5°F19.7°C 62.8°F17.1°C 85% Calm Calm -- 29.85 in1010.8 mb - 0.00 in0.0 mm 0.00 in0.0 mm
12:05 AM 67.4°F19.7°C 62.7°F17.1°C 85% Calm Calm 1.2 mph1.9 kmh 29.85 in1010.8 mb - 0.00 in0.0 mm 0.00 in0.0 mm
12:10 AM 67.2°F19.6°C 62.9°F17.2°C 86% 1.2 mph SW1.9 kmh SW 4.6 mph7.4 kmh 29.85 in1010.8 mb - 0.00 in0.0 mm 0.00 in0.0 mm
12:15 AM 67.4°F19.7°C 63.1°F17.3°C 86% 2.3 mph WSW3.7 kmh WSW 3.5 mph5.6 kmh 29.85 in1010.8 mb - 0.00 in0.0 mm 0.00 in0.0 mm
12:20 AM 67.6°F19.8°C 62.9°F17.2°C 85% 1.2 mph SW1.9 kmh SW 3.5 mph5.6 kmh 29.85 in1010.8 mb - 0.00 in0.0 mm 0.00 in0.0 mm
12:25 AM 67.7°F19.8°C 63.0°F17.2°C 85% 2.3 mph SW3.7 kmh SW 3.5 mph5.6 kmh 29.85 in1010.8 mb - 0.00 in0.0 mm 0.00 in0.0 mm
12:30 AM 67.9°F19.9°C 63.2°F17.3°C 85% 3.5 mph SW5.6 kmh SW 4.6 mph7.4 kmh 29.85 in1010.8 mb - 0.00 in0.0 mm 0.00 in0.0 mm
12:35 AM 68.0°F20.0°C 63.0°F17.2°C 84% 2.3 mph SSW3.7 kmh SSW 3.5 mph5.6 kmh 29.85 in1010.8 mb - 0.00 in0.0 mm 0.00 in0.0 mm
12:40 AM 68.1°F20.1°C 63.1°F17.3°C 84% 1.2 mph SW1.9 kmh SW 2.3 mph3.7 kmh 29.85 in1010.8 mb - 0.00 in0.0 mm 0.00 in0.0 mm
12:45 AM 68.1°F20.1°C 63.1°F17.3°C 84% Calm Calm 1.2 mph1.9 kmh 29.85 in1010.8 mb - 0.00 in0.0 mm 0.00 in0.0 mm
12:50 AM 68.1°F20.1°C 63.1°F17.3°C 84% Calm Calm -- 29.85 in1010.8 mb - 0.00 in0.0 mm 0.00 in0.0 mm
12:55 AM 68.0°F20.0°C 63.0°F17.2°C 84% Calm Calm -- 29.85 in1010.8 mb - 0.00 in0.0 mm 0.00 in0.0 mm
01:00 AM 68.0°F20.0°C 63.3°F17.4°C 85% Calm Calm 1.2 mph1.9 kmh 29.85 in1010.8 mb - 0.00 in0.0 mm 0.00 in0.0 mm
01:05 AM 67.9°F19.9°C 63.2°F17.3°C 85% Calm Calm 3.5 mph5.6 kmh 29.85 in1010.8 mb - 0.00 in0.0 mm 0.00 in0.0 mm
01:10 AM 67.9°F19.9°C 63.2°F17.3°C 85% 1.2 mph WNW1.9 kmh WNW 2.3 mph3.7 kmh 29.85 in1010.8 mb - 0.00 in0.0 mm 0.00 in0.0 mm
01:15 AM 68.0°F20.0°C 63.0°F17.2°C 84% 1.2 mph WNW1.9 kmh WNW 3.5 mph5.6 kmh 29.85 in1010.8 mb - 0.00 in0.0 mm 0.00 in0.0 mm
01:20 AM 68.1°F20.1°C 63.1°F17.3°C 84% Calm Calm -- 29.85 in1010.8 mb - 0.00 in0.0 mm 0.00 in0.0 mm
01:25 AM 68.3°F20.2°C 63.3°F17.4°C 84% Calm Calm -- 29.85 in1010.8 mb - 0.00 in0.0 mm 0.00 in0.0 mm
01:30 AM 68.3°F20.2°C 63.3°F17.4°C 84% Calm Calm 1.2 mph1.9 kmh 29.85 in1010.8 mb - 0.00 in0.0 mm 0.00 in0.0 mm
01:35 AM 68.3°F20.2°C 63.3°F17.4°C 84% Calm Calm 1.2 mph1.9 kmh 29.85 in1010.8 mb - 0.00 in0.0 mm 0.00 in0.0 mm
01:40 AM 68.3°F20.2°C 63.3°F17.4°C 84% Calm Calm -- 29.85 in1010.8 mb - 0.00 in0.0 mm 0.00 in0.0 mm
01:45 AM 68.2°F20.1°C 63.2°F17.3°C 84% Calm Calm 1.2 mph1.9 kmh 29.85 in1010.8 mb - 0.00 in0.0 mm 0.00 in0.0 mm
01:50 AM 68.1°F20.1°C 63.4°F17.4°C 85% 1.2 mph NNW1.9 kmh NNW 2.3 mph3.7 kmh 29.85 in1010.8 mb - 0.00 in0.0 mm 0.00 in0.0 mm
01:55 AM 68.0°F20.0°C 63.3°F17.4°C 85% Calm Calm -- 29.85 in1010.8 mb - 0.00 in0.0 mm 0.00 in0.0 mm
02:00 AM 67.8°F19.9°C 63.5°F17.5°C 86% 3.5 mph S5.6 kmh S 3.5 mph5.6 kmh 29.85 in1010.8 mb - 0.00 in0.0 mm 0.00 in0.0 mm
02:05 AM 67.6°F19.8°C 63.3°F17.4°C 86% Calm Calm -- 29.85 in1010.8 mb - 0.00 in0.0 mm 0.00 in0.0 mm
02:10 AM 67.4°F19.7°C 63.1°F17.3°C 86% Calm Calm 1.2 mph1.9 kmh 29.85 in1010.8 mb - 0.00 in0.0 mm 0.00 in0.0 mm
02:15 AM 67.3°F19.6°C 63.3°F17.4°C 87% Calm Calm -- 29.85 in1010.8 mb - 0.00 in0.0 mm 0.00 in0.0 mm
02:20 AM 67.3°F19.6°C 63.0°F17.2°C 86% Calm Calm -- 29.85 in1010.8 mb - 0.00 in0.0 mm 0.00 in0.0 mm
02:25 AM 67.2°F19.6°C 63.2°F17.3°C 87% Calm Calm -- 29.86 in1011.2 mb - 0.00 in0.0 mm 0.00 in0.0 mm
02:30 AM 67.2°F19.6°C 63.2°F17.3°C 87% 1.2 mph NE1.9 kmh NE 3.5 mph5.6 kmh 29.86 in1011.2 mb - 0.00 in0.0 mm 0.00 in0.0 mm
02:35 AM 67.0°F19.4°C 63.0°F17.2°C 87% Calm Calm -- 29.86 in1011.2 mb - 0.00 in0.0 mm 0.00 in0.0 mm
02:40 AM 66.9°F19.4°C 62.9°F17.2°C 87% Calm Calm -- 29.86 in1011.2 mb - 0.00 in0.0 mm 0.00 in0.0 mm
02:45 AM 66.7°F19.3°C 62.7°F17.1°C 87% 1.2 mph NE1.9 kmh NE 2.3 mph3.7 kmh 29.86 in1011.2 mb - 0.00 in0.0 mm 0.00 in0.0 mm
02:50 AM 66.5°F19.2°C 62.8°F17.1°C 88% 1.2 mph N1.9 kmh N 2.3 mph3.7 kmh 29.86 in1011.2 mb - 0.00 in0.0 mm 0.00 in0.0 mm
02:55 AM 66.5°F19.2°C 62.8°F17.1°C 88% 1.2 mph 1.9 kmh 3.5 mph5.6 kmh 29.87 in1011.5 mb - 0.00 in0.0 mm 0.00 in0.0 mm
03:00 AM 66.4°F19.1°C 62.7°F17.1°C 88% 1.2 mph NNE1.9 kmh NNE 2.3 mph3.7 kmh 29.86 in1011.2 mb - 0.00 in0.0 mm 0.00 in0.0 mm
03:05 AM 66.3°F19.1°C 62.3°F16.8°C 87% 1.2 mph NNE1.9 kmh NNE 3.5 mph5.6 kmh 29.87 in1011.5 mb - 0.00 in0.0 mm 0.00 in0.0 mm
03:10 AM 66.2°F19.0°C 62.2°F16.8°C 87% Calm Calm -- 29.87 in1011.5 mb - 0.00 in0.0 mm 0.00 in0.0 mm
03:15 AM 66.1°F18.9°C 62.1°F16.7°C 87% Calm Calm -- 29.86 in1011.2 mb - 0.00 in0.0 mm 0.00 in0.0 mm
03:20 AM 66.1°F18.9°C 62.1°F16.7°C 87% Calm Calm -- 29.87 in1011.5 mb - 0.00 in0.0 mm 0.00 in0.0 mm
03:25 AM 66.0°F18.9°C 62.4°F16.9°C 88% Calm Calm -- 29.88 in1011.9 mb - 0.00 in0.0 mm 0.00 in0.0 mm
03:30 AM 66.0°F18.9°C 62.4°F16.9°C 88% Calm Calm -- 29.87 in1011.5 mb - 0.00 in0.0 mm 0.00 in0.0 mm
03:35 AM 66.0°F18.9°C 62.3°F16.8°C 88% Calm Calm -- 29.87 in1011.5 mb - 0.00 in0.0 mm 0.00 in0.0 mm
03:40 AM 66.0°F18.9°C 62.3°F16.8°C 88% Calm Calm -- 29.87 in1011.5 mb - 0.00 in0.0 mm 0.00 in0.0 mm
03:45 AM 66.0°F18.9°C 62.3°F16.8°C 88% Calm Calm 3.5 mph5.6 kmh 29.88 in1011.9 mb - 0.00 in0.0 mm 0.00 in0.0 mm
03:50 AM 65.9°F18.8°C 62.2°F16.8°C 88% 1.2 mph NW1.9 kmh NW 3.5 mph5.6 kmh 29.88 in1011.9 mb - 0.00 in0.0 mm 0.00 in0.0 mm
03:55 AM 65.7°F18.7°C 62.0°F16.7°C 88% 1.2 mph WNW1.9 kmh WNW 3.5 mph5.6 kmh 29.89 in1012.2 mb - 0.00 in0.0 mm 0.00 in0.0 mm
04:00 AM 65.5°F18.6°C 62.5°F16.9°C 90% 3.5 mph N5.6 kmh N 4.6 mph7.4 kmh 29.87 in1011.5 mb - 0.07 in1.8 mm 0.07 in1.8 mm
04:05 AM 65.2°F18.4°C 62.2°F16.8°C 90% 3.5 mph N5.6 kmh N 3.5 mph5.6 kmh 29.88 in1011.9 mb - 0.02 in0.5 mm 0.08 in2.0 mm
04:10 AM 65.0°F18.3°C 62.3°F16.8°C 91% 2.3 mph NNW3.7 kmh NNW 4.6 mph7.4 kmh 29.87 in1011.5 mb - 0.00 in0.0 mm 0.08 in2.0 mm
04:15 AM 64.7°F18.2°C 61.7°F16.5°C 90% 1.2 mph NNW1.9 kmh NNW 3.5 mph5.6 kmh 29.87 in1011.5 mb - 0.00 in0.0 mm 0.08 in2.0 mm
04:20 AM 64.6°F18.1°C 61.6°F16.4°C 90% 1.2 mph NNE1.9 kmh NNE 2.3 mph3.7 kmh 29.87 in1011.5 mb - 0.00 in0.0 mm 0.08 in2.0 mm
04:25 AM 64.5°F18.1°C 61.5°F16.4°C 90% 1.2 mph NE1.9 kmh NE 3.5 mph5.6 kmh 29.87 in1011.5 mb - 0.00 in0.0 mm 0.08 in2.0 mm
04:30 AM 64.3°F17.9°C 61.3°F16.3°C 90% 2.3 mph NE3.7 kmh NE 3.5 mph5.6 kmh 29.87 in1011.5 mb - 0.00 in0.0 mm 0.08 in2.0 mm
04:35 AM 64.3°F17.9°C 61.6°F16.4°C 91% Calm Calm 2.3 mph3.7 kmh 29.88 in1011.9 mb - 0.00 in0.0 mm 0.08 in2.0 mm
04:40 AM 64.2°F17.9°C 61.5°F16.4°C 91% 4.6 mph NNW7.4 kmh NNW 5.8 mph9.3 kmh 29.89 in1012.2 mb - 0.00 in0.0 mm 0.08 in2.0 mm
04:45 AM 64.2°F17.9°C 61.5°F16.4°C 91% 2.3 mph NW3.7 kmh NW 4.6 mph7.4 kmh 29.90 in1012.5 mb - 0.00 in0.0 mm 0.08 in2.0 mm
04:50 AM 64.1°F17.8°C 61.4°F16.3°C 91% 6.9 mph NW11.1 kmh NW 12.7 mph20.4 kmh 29.91 in1012.9 mb - 0.01 in0.3 mm 0.09 in2.3 mm
04:55 AM 63.9°F17.7°C 61.2°F16.2°C 91% 8.1 mph NW13.0 kmh NW 12.7 mph20.4 kmh 29.93 in1013.5 mb - 0.09 in2.3 mm 0.18 in4.6 mm
05:00 AM 63.4°F17.4°C 60.7°F15.9°C 91% 2.3 mph N3.7 kmh N 5.8 mph9.3 kmh 29.92 in1013.2 mb - 0.21 in5.3 mm 0.34 in8.6 mm
05:05 AM 63.1°F17.3°C 60.7°F15.9°C 92% 4.6 mph N7.4 kmh N 10.4 mph16.7 kmh 29.90 in1012.5 mb - 0.02 in0.5 mm 0.35 in8.9 mm
05:10 AM 62.8°F17.1°C 60.7°F15.9°C 93% 3.5 mph NE5.6 kmh NE 5.8 mph9.3 kmh 29.91 in1012.9 mb - 0.01 in0.3 mm 0.35 in8.9 mm
05:15 AM 62.6°F17.0°C 60.6°F15.9°C 93% 4.6 mph ENE7.4 kmh ENE 5.8 mph9.3 kmh 29.91 in1012.9 mb - 0.01 in0.3 mm 0.36 in9.1 mm
05:20 AM 62.2°F16.8°C 59.6°F15.3°C 91% 6.9 mph NE11.1 kmh NE 10.4 mph16.7 kmh 29.91 in1012.9 mb - 0.00 in0.0 mm 0.36 in9.1 mm
05:25 AM 62.0°F16.7°C 59.3°F15.2°C 91% 4.6 mph ENE7.4 kmh ENE 8.1 mph13.0 kmh 29.91 in1012.9 mb - 0.00 in0.0 mm 0.36 in9.1 mm
05:30 AM 61.7°F16.5°C 59.1°F15.1°C 91% 3.5 mph E5.6 kmh E 6.9 mph11.1 kmh 29.91 in1012.9 mb - 0.00 in0.0 mm 0.36 in9.1 mm
05:35 AM 61.4°F16.3°C 58.4°F14.7°C 90% 3.5 mph NE5.6 kmh NE 4.6 mph7.4 kmh 29.92 in1013.2 mb - 0.00 in0.0 mm 0.36 in9.1 mm
05:40 AM 61.2°F16.2°C 58.2°F14.6°C 90% 2.3 mph NE3.7 kmh NE 9.2 mph14.8 kmh 29.92 in1013.2 mb - 0.00 in0.0 mm 0.36 in9.1 mm
05:45 AM 61.1°F16.2°C 58.5°F14.7°C 91% 1.2 mph NE1.9 kmh NE 3.5 mph5.6 kmh 29.93 in1013.5 mb - 0.00 in0.0 mm 0.36 in9.1 mm
05:50 AM 61.0°F16.1°C 58.4°F14.7°C 91% 1.2 mph NNE1.9 kmh NNE 3.5 mph5.6 kmh 29.93 in1013.5 mb - 0.00 in0.0 mm 0.36 in9.1 mm
05:55 AM 61.0°F16.1°C 58.7°F14.8°C 92% 1.2 mph NNE1.9 kmh NNE 3.5 mph5.6 kmh 29.93 in1013.5 mb - 0.00 in0.0 mm 0.36 in9.1 mm
06:00 AM 61.0°F16.1°C 58.7°F14.8°C 92% 1.2 mph NNE1.9 kmh NNE 2.3 mph3.7 kmh 29.93 in1013.5 mb - 0.00 in0.0 mm 0.36 in9.1 mm
06:05 AM 60.9°F16.1°C 58.6°F14.8°C 92% 1.2 mph NE1.9 kmh NE 3.5 mph5.6 kmh 29.93 in1013.5 mb - 0.00 in0.0 mm 0.36 in9.1 mm
06:10 AM 60.9°F16.1°C 58.6°F14.8°C 92% Calm Calm -- 29.94 in1013.9 mb - 0.00 in0.0 mm 0.36 in9.1 mm
06:15 AM 60.9°F16.1°C 58.6°F14.8°C 92% 2.3 mph NE3.7 kmh NE 3.5 mph5.6 kmh 29.94 in1013.9 mb - 0.00 in0.0 mm 0.36 in9.1 mm
06:20 AM 60.9°F16.1°C 58.6°F14.8°C 92% Calm Calm -- 29.94 in1013.9 mb - 0.00 in0.0 mm 0.36 in9.1 mm
06:25 AM 60.9°F16.1°C 58.3°F14.6°C 91% Calm Calm 2.3 mph3.7 kmh 29.94 in1013.9 mb - 0.00 in0.0 mm 0.36 in9.1 mm
06:30 AM 60.9°F16.1°C 58.3°F14.6°C 91% 1.2 mph NE1.9 kmh NE 3.5 mph5.6 kmh 29.94 in1013.9 mb - 0.00 in0.0 mm 0.36 in9.1 mm
06:35 AM 60.9°F16.1°C 58.3°F14.6°C 91% 1.2 mph NE1.9 kmh NE 3.5 mph5.6 kmh 29.94 in1013.9 mb - 0.00 in0.0 mm 0.36 in9.1 mm
06:40 AM 61.0°F16.1°C 58.4°F14.7°C 91% 1.2 mph NE1.9 kmh NE 3.5 mph5.6 kmh 29.95 in1014.2 mb - 0.00 in0.0 mm 0.36 in9.1 mm
06:45 AM 61.0°F16.1°C 58.4°F14.7°C 91% 1.2 mph NNE1.9 kmh NNE 3.5 mph5.6 kmh 29.95 in1014.2 mb - 0.00 in0.0 mm 0.36 in9.1 mm
06:50 AM 61.0°F16.1°C 58.4°F14.7°C 91% Calm Calm 1.2 mph1.9 kmh 29.95 in1014.2 mb - 0.00 in0.0 mm 0.36 in9.1 mm
06:55 AM 61.1°F16.2°C 58.5°F14.7°C 91% 1.2 mph NE1.9 kmh NE 3.5 mph5.6 kmh 29.95 in1014.2 mb - 0.00 in0.0 mm 0.36 in9.1 mm
07:00 AM 61.1°F16.2°C 58.2°F14.6°C 90% 1.2 mph NE1.9 kmh NE 3.5 mph5.6 kmh 29.95 in1014.2 mb - 0.00 in0.0 mm 0.36 in9.1 mm
07:05 AM 61.3°F16.3°C 58.3°F14.6°C 90% Calm Calm -- 29.95 in1014.2 mb - 0.00 in0.0 mm 0.36 in9.1 mm
07:10 AM 61.4°F16.3°C 58.4°F14.7°C 90% Calm Calm 1.2 mph1.9 kmh 29.95 in1014.2 mb - 0.00 in0.0 mm 0.36 in9.1 mm
07:15 AM 61.5°F16.4°C 58.2°F14.6°C 89% 2.3 mph N3.7 kmh N 3.5 mph5.6 kmh 29.95 in1014.2 mb - 0.00 in0.0 mm 0.36 in9.1 mm
07:20 AM 61.5°F16.4°C 58.2°F14.6°C 89% 2.3 mph N3.7 kmh N 3.5 mph5.6 kmh 29.96 in1014.6 mb - 0.00 in0.0 mm 0.36 in9.1 mm
07:25 AM 61.6°F16.4°C 58.3°F14.6°C 89% 1.2 mph N1.9 kmh N 3.5 mph5.6 kmh 29.96 in1014.6 mb - 0.00 in0.0 mm 0.36 in9.1 mm
07:30 AM 61.6°F16.4°C 58.3°F14.6°C 89% 1.2 mph N1.9 kmh N 3.5 mph5.6 kmh 29.96 in1014.6 mb - 0.00 in0.0 mm 0.36 in9.1 mm
07:35 AM 61.6°F16.4°C 58.3°F14.6°C 89% 2.3 mph NNE3.7 kmh NNE 3.5 mph5.6 kmh 29.96 in1014.6 mb - 0.00 in0.0 mm 0.36 in9.1 mm
07:40 AM 61.6°F16.4°C 58.0°F14.4°C 88% 1.2 mph NNE1.9 kmh NNE 3.5 mph5.6 kmh 29.96 in1014.6 mb - 0.00 in0.0 mm 0.36 in9.1 mm
07:45 AM 61.7°F16.5°C 58.1°F14.5°C 88% 2.3 mph NNE3.7 kmh NNE 3.5 mph5.6 kmh 29.96 in1014.6 mb - 0.00 in0.0 mm 0.36 in9.1 mm
07:50 AM 61.8°F16.6°C 58.2°F14.6°C 88% Calm Calm -- 29.96 in1014.6 mb - 0.00 in0.0 mm 0.36 in9.1 mm
07:55 AM 61.8°F16.6°C 57.9°F14.4°C 87% Calm Calm 1.2 mph1.9 kmh 29.97 in1014.9 mb - 0.00 in0.0 mm 0.36 in9.1 mm
08:00 AM 62.3°F16.8°C 58.4°F14.7°C 87% 2.3 mph NE3.7 kmh NE 3.5 mph5.6 kmh 29.97 in1014.9 mb - 0.00 in0.0 mm 0.36 in9.1 mm
08:05 AM 62.7°F17.1°C 58.5°F14.7°C 86% Calm Calm 2.3 mph3.7 kmh 29.97 in1014.9 mb - 0.00 in0.0 mm 0.36 in9.1 mm
08:10 AM 63.4°F17.4°C 59.1°F15.1°C 86% Calm Calm 1.2 mph1.9 kmh 29.97 in1014.9 mb - 0.00 in0.0 mm 0.36 in9.1 mm
08:15 AM 64.2°F17.9°C 59.0°F15.0°C 83% Calm Calm 2.3 mph3.7 kmh 29.97 in1014.9 mb - 0.00 in0.0 mm 0.36 in9.1 mm
08:20 AM 65.1°F18.4°C 59.1°F15.1°C 81% 1.2 mph E1.9 kmh E 3.5 mph5.6 kmh 29.97 in1014.9 mb - 0.00 in0.0 mm 0.36 in9.1 mm
08:25 AM 65.6°F18.7°C 59.6°F15.3°C 81% 2.3 mph E3.7 kmh E 2.3 mph3.7 kmh 29.97 in1014.9 mb - 0.00 in0.0 mm 0.36 in9.1 mm
08:30 AM 65.3°F18.5°C 58.9°F14.9°C 80% Calm Calm 2.3 mph3.7 kmh 29.97 in1014.9 mb - 0.00 in0.0 mm 0.36 in9.1 mm
08:35 AM 65.1°F18.4°C 59.1°F15.1°C 81% Calm Calm 1.2 mph1.9 kmh 29.97 in1014.9 mb - 0.00 in0.0 mm 0.36 in9.1 mm
08:40 AM 65.2°F18.4°C 59.2°F15.1°C 81% Calm Calm 1.2 mph1.9 kmh 29.97 in1014.9 mb - 0.00 in0.0 mm 0.36 in9.1 mm
08:45 AM 65.4°F18.6°C 59.4°F15.2°C 81% 1.2 mph E1.9 kmh E 3.5 mph5.6 kmh 29.97 in1014.9 mb - 0.00 in0.0 mm 0.36 in9.1 mm
08:50 AM 65.8°F18.8°C 59.8°F15.4°C 81% 3.5 mph NNE5.6 kmh NNE 4.6 mph7.4 kmh 29.97 in1014.9 mb - 0.00 in0.0 mm 0.36 in9.1 mm
08:55 AM 65.8°F18.8°C 59.5°F15.3°C 80% 2.3 mph NNE3.7 kmh NNE 4.6 mph7.4 kmh 29.97 in1014.9 mb - 0.00 in0.0 mm 0.36 in9.1 mm
09:00 AM 66.0°F18.9°C 59.6°F15.3°C 80% 4.6 mph NE7.4 kmh NE 8.1 mph13.0 kmh 29.97 in1014.9 mb - 0.00 in0.0 mm 0.36 in9.1 mm
09:05 AM 66.2°F19.0°C 59.1°F15.1°C 78% 4.6 mph N7.4 kmh N 4.6 mph7.4 kmh 29.97 in1014.9 mb - 0.00 in0.0 mm 0.36 in9.1 mm
09:10 AM 66.3°F19.1°C 59.6°F15.3°C 79% 3.5 mph NNE5.6 kmh NNE 3.5 mph5.6 kmh 29.97 in1014.9 mb - 0.00 in0.0 mm 0.36 in9.1 mm
09:15 AM 66.1°F18.9°C 59.1°F15.1°C 78% 5.8 mph N9.3 kmh N 8.1 mph13.0 kmh 29.97 in1014.9 mb - 0.00 in0.0 mm 0.36 in9.1 mm
09:20 AM 66.3°F19.1°C 59.2°F15.1°C 78% 5.8 mph NE9.3 kmh NE 9.2 mph14.8 kmh 29.98 in1015.2 mb - 0.00 in0.0 mm 0.36 in9.1 mm
09:25 AM 66.7°F19.3°C 59.6°F15.3°C 78% 3.5 mph NNE5.6 kmh NNE 5.8 mph9.3 kmh 29.98 in1015.2 mb - 0.00 in0.0 mm 0.36 in9.1 mm
09:30 AM 67.0°F19.4°C 59.5°F15.3°C 77% 2.3 mph ENE3.7 kmh ENE 3.5 mph5.6 kmh 29.98 in1015.2 mb - 0.00 in0.0 mm 0.36 in9.1 mm
09:35 AM 67.1°F19.5°C 59.6°F15.3°C 77% 2.3 mph NE3.7 kmh NE 3.5 mph5.6 kmh 29.98 in1015.2 mb - 0.00 in0.0 mm 0.36 in9.1 mm
09:40 AM 67.7°F19.8°C 59.8°F15.4°C 76% 3.5 mph ENE5.6 kmh ENE 8.1 mph13.0 kmh 29.98 in1015.2 mb - 0.00 in0.0 mm 0.36 in9.1 mm
09:45 AM 68.2°F20.1°C 60.0°F15.6°C 75% 6.9 mph NE11.1 kmh NE 10.4 mph16.7 kmh 29.98 in1015.2 mb - 0.00 in0.0 mm 0.36 in9.1 mm
09:50 AM 68.8°F20.4°C 58.6°F14.8°C 70% 6.9 mph NE11.1 kmh NE 9.2 mph14.8 kmh 29.99 in1015.6 mb - 0.00 in0.0 mm 0.36 in9.1 mm
09:55 AM 68.9°F20.5°C 59.1°F15.1°C 71% 4.6 mph E7.4 kmh E 6.9 mph11.1 kmh 29.99 in1015.6 mb - 0.00 in0.0 mm 0.36 in9.1 mm
10:00 AM 69.0°F20.6°C 58.4°F14.7°C 69% 5.8 mph ENE9.3 kmh ENE 9.2 mph14.8 kmh 29.99 in1015.6 mb - 0.00 in0.0 mm 0.36 in9.1 mm
10:05 AM 69.0°F20.6°C 58.4°F14.7°C 69% 4.6 mph ENE7.4 kmh ENE 9.2 mph14.8 kmh 29.99 in1015.6 mb - 0.00 in0.0 mm 0.36 in9.1 mm
10:10 AM 69.0°F20.6°C 58.4°F14.7°C 69% 5.8 mph ENE9.3 kmh ENE 8.1 mph13.0 kmh 29.99 in1015.6 mb - 0.00 in0.0 mm 0.36 in9.1 mm
10:15 AM 69.0°F20.6°C 58.8°F14.9°C 70% 3.5 mph NE5.6 kmh NE 5.8 mph9.3 kmh 29.99 in1015.6 mb - 0.00 in0.0 mm 0.36 in9.1 mm
10:20 AM 69.4°F20.8°C 59.2°F15.1°C 70% 3.5 mph ENE5.6 kmh ENE 8.1 mph13.0 kmh 29.99 in1015.6 mb - 0.00 in0.0 mm 0.36 in9.1 mm
10:25 AM 69.5°F20.8°C 59.7°F15.4°C 71% 1.2 mph NE1.9 kmh NE 4.6 mph7.4 kmh 29.99 in1015.6 mb - 0.00 in0.0 mm 0.36 in9.1 mm
10:30 AM 70.0°F21.1°C 59.0°F15.0°C 68% 2.3 mph E3.7 kmh E 5.8 mph9.3 kmh 29.99 in1015.6 mb - 0.00 in0.0 mm 0.36 in9.1 mm
10:35 AM 70.5°F21.4°C 60.2°F15.7°C 70% 5.8 mph ENE9.3 kmh ENE 9.2 mph14.8 kmh 29.99 in1015.6 mb - 0.00 in0.0 mm 0.36 in9.1 mm
10:40 AM 71.0°F21.7°C 59.5°F15.3°C 67% 2.3 mph NE3.7 kmh NE 5.8 mph9.3 kmh 29.99 in1015.6 mb - 0.00 in0.0 mm 0.36 in9.1 mm
10:45 AM 71.7°F22.1°C 60.2°F15.7°C 67% 5.8 mph E9.3 kmh E 5.8 mph9.3 kmh 29.99 in1015.6 mb - 0.00 in0.0 mm 0.36 in9.1 mm
10:50 AM 73.1°F22.8°C 60.2°F15.7°C 64% 3.5 mph E5.6 kmh E 6.9 mph11.1 kmh 29.99 in1015.6 mb - 0.00 in0.0 mm 0.36 in9.1 mm
10:55 AM 73.2°F22.9°C 60.7°F15.9°C 65% 3.5 mph E5.6 kmh E 4.6 mph7.4 kmh 29.99 in1015.6 mb - 0.00 in0.0 mm 0.36 in9.1 mm
11:00 AM 73.5°F23.1°C 60.6°F15.9°C 64% 2.3 mph NE3.7 kmh NE 9.2 mph14.8 kmh 29.99 in1015.6 mb - 0.00 in0.0 mm 0.36 in9.1 mm
11:05 AM 73.2°F22.9°C 60.3°F15.7°C 64% 3.5 mph ENE5.6 kmh ENE 5.8 mph9.3 kmh 29.99 in1015.6 mb - 0.00 in0.0 mm 0.36 in9.1 mm
11:10 AM 72.6°F22.6°C 59.7°F15.4°C 64% 4.6 mph E7.4 kmh E 6.9 mph11.1 kmh 29.99 in1015.6 mb - 0.00 in0.0 mm 0.36 in9.1 mm
11:15 AM 72.6°F22.6°C 59.7°F15.4°C 64% 5.8 mph NE9.3 kmh NE 11.5 mph18.5 kmh 29.98 in1015.2 mb - 0.00 in0.0 mm 0.36 in9.1 mm
11:20 AM 72.5°F22.5°C 58.7°F14.8°C 62% 5.8 mph E9.3 kmh E 10.4 mph16.7 kmh 29.98 in1015.2 mb - 0.00 in0.0 mm 0.36 in9.1 mm
11:25 AM 72.4°F22.4°C 60.0°F15.6°C 65% 3.5 mph E5.6 kmh E 6.9 mph11.1 kmh 29.98 in1015.2 mb - 0.00 in0.0 mm 0.36 in9.1 mm
11:30 AM 73.0°F22.8°C 59.7°F15.4°C 63% 6.9 mph ENE11.1 kmh ENE 10.4 mph16.7 kmh 29.98 in1015.2 mb - 0.00 in0.0 mm 0.36 in9.1 mm
11:35 AM 72.4°F22.4°C 58.7°F14.8°C 62% 5.8 mph NE9.3 kmh NE 9.2 mph14.8 kmh 29.98 in1015.2 mb - 0.00 in0.0 mm 0.36 in9.1 mm
11:40 AM 72.9°F22.7°C 59.6°F15.3°C 63% 9.2 mph NE14.8 kmh NE 11.5 mph18.5 kmh 29.98 in1015.2 mb - 0.00 in0.0 mm 0.36 in9.1 mm
11:45 AM 72.7°F22.6°C 59.4°F15.2°C 63% 6.9 mph NNE11.1 kmh NNE 10.4 mph16.7 kmh 29.98 in1015.2 mb - 0.00 in0.0 mm 0.36 in9.1 mm
11:50 AM 72.0°F22.2°C 58.7°F14.8°C 63% 9.2 mph NNE14.8 kmh NNE 11.5 mph18.5 kmh 29.98 in1015.2 mb - 0.00 in0.0 mm 0.36 in9.1 mm
11:55 AM 72.0°F22.2°C 59.6°F15.3°C 65% 4.6 mph E7.4 kmh E 6.9 mph11.1 kmh 29.97 in1014.9 mb - 0.00 in0.0 mm 0.36 in9.1 mm
12:00 PM 72.2°F22.3°C 57.0°F13.9°C 59% 9.2 mph NE14.8 kmh NE 10.4 mph16.7 kmh 29.97 in1014.9 mb - 0.00 in0.0 mm 0.36 in9.1 mm
12:05 PM 71.9°F22.2°C 57.2°F14.0°C 60% 3.5 mph NE5.6 kmh NE 9.2 mph14.8 kmh 29.98 in1015.2 mb - 0.00 in0.0 mm 0.36 in9.1 mm
12:10 PM 72.0°F22.2°C 56.9°F13.8°C 59% 5.8 mph NE9.3 kmh NE 11.5 mph18.5 kmh 29.98 in1015.2 mb - 0.00 in0.0 mm 0.36 in9.1 mm
12:15 PM 72.0°F22.2°C 57.8°F14.3°C 61% 6.9 mph NE11.1 kmh NE 11.5 mph18.5 kmh 29.98 in1015.2 mb - 0.00 in0.0 mm 0.36 in9.1 mm
12:20 PM 71.9°F22.2°C 57.7°F14.3°C 61% 4.6 mph ENE7.4 kmh ENE 8.1 mph13.0 kmh 29.98 in1015.2 mb - 0.00 in0.0 mm 0.36 in9.1 mm
12:25 PM 72.1°F22.3°C 57.4°F14.1°C 60% 6.9 mph NE11.1 kmh NE 11.5 mph18.5 kmh 29.98 in1015.2 mb - 0.00 in0.0 mm 0.36 in9.1 mm
12:30 PM 72.0°F22.2°C 57.4°F14.1°C 60% 5.8 mph ENE9.3 kmh ENE 11.5 mph18.5 kmh 29.98 in1015.2 mb - 0.00 in0.0 mm 0.36 in9.1 mm
12:35 PM 72.3°F22.4°C 57.2°F14.0°C 59% 5.8 mph NE9.3 kmh NE 11.5 mph18.5 kmh 29.98 in1015.2 mb - 0.00 in0.0 mm 0.36 in9.1 mm
12:40 PM 72.5°F22.5°C 57.4°F14.1°C 59% 4.6 mph E7.4 kmh E 6.9 mph11.1 kmh 29.98 in1015.2 mb - 0.00 in0.0 mm 0.36 in9.1 mm
12:45 PM 72.7°F22.6°C 57.0°F13.9°C 58% 3.5 mph ENE5.6 kmh ENE 6.9 mph11.1 kmh 29.98 in1015.2 mb - 0.00 in0.0 mm 0.36 in9.1 mm
12:50 PM 73.4°F23.0°C 57.2°F14.0°C 57% 4.6 mph ENE7.4 kmh ENE 8.1 mph13.0 kmh 29.98 in1015.2 mb - 0.00 in0.0 mm 0.36 in9.1 mm
12:55 PM 73.8°F23.2°C 58.1°F14.5°C 58% 8.1 mph NE13.0 kmh NE 10.4 mph16.7 kmh 29.98 in1015.2 mb - 0.00 in0.0 mm 0.36 in9.1 mm
01:00 PM 73.8°F23.2°C 58.1°F14.5°C 58% 6.9 mph NE11.1 kmh NE 9.2 mph14.8 kmh 29.98 in1015.2 mb - 0.00 in0.0 mm 0.36 in9.1 mm
01:05 PM 74.4°F23.6°C 57.2°F14.0°C 55% 2.3 mph ENE3.7 kmh ENE 5.8 mph9.3 kmh 29.98 in1015.2 mb - 0.00 in0.0 mm 0.36 in9.1 mm
01:10 PM 74.6°F23.7°C 57.4°F14.1°C 55% 2.3 mph NE3.7 kmh NE 3.5 mph5.6 kmh 29.97 in1014.9 mb - 0.00 in0.0 mm 0.36 in9.1 mm
01:15 PM 74.8°F23.8°C 58.1°F14.5°C 56% 3.5 mph NE5.6 kmh NE 10.4 mph16.7 kmh 29.97 in1014.9 mb - 0.00 in0.0 mm 0.36 in9.1 mm
01:20 PM 74.3°F23.5°C 56.6°F13.7°C 54% 6.9 mph NE11.1 kmh NE 11.5 mph18.5 kmh 29.97 in1014.9 mb - 0.00 in0.0 mm 0.36 in9.1 mm
01:25 PM 74.3°F23.5°C 56.1°F13.4°C 53% 6.9 mph NE11.1 kmh NE 10.4 mph16.7 kmh 29.97 in1014.9 mb - 0.00 in0.0 mm 0.36 in9.1 mm
01:30 PM 74.2°F23.4°C 57.0°F13.9°C 55% 6.9 mph NE11.1 kmh NE 11.5 mph18.5 kmh 29.97 in1014.9 mb - 0.00 in0.0 mm 0.36 in9.1 mm
01:35 PM 74.3°F23.5°C 56.6°F13.7°C 54% 5.8 mph NE9.3 kmh NE 10.4 mph16.7 kmh 29.96 in1014.6 mb - 0.00 in0.0 mm 0.36 in9.1 mm
01:40 PM 74.6°F23.7°C 56.3°F13.5°C 53% 6.9 mph NE11.1 kmh NE 9.2 mph14.8 kmh 29.97 in1014.9 mb - 0.00 in0.0 mm 0.36 in9.1 mm
01:45 PM 74.8°F23.8°C 56.6°F13.7°C 53% 6.9 mph NE11.1 kmh NE 9.2 mph14.8 kmh 29.97 in1014.9 mb - 0.00 in0.0 mm 0.36 in9.1 mm
01:50 PM 74.7°F23.7°C 58.0°F14.4°C 56% 3.5 mph NE5.6 kmh NE 10.4 mph16.7 kmh 29.97 in1014.9 mb - 0.00 in0.0 mm 0.36 in9.1 mm
01:55 PM 74.9°F23.8°C 57.1°F13.9°C 54% 4.6 mph NE7.4 kmh NE 9.2 mph14.8 kmh 29.97 in1014.9 mb - 0.00 in0.0 mm 0.36 in9.1 mm
02:00 PM 74.5°F23.6°C 56.8°F13.8°C 54% 2.3 mph ENE3.7 kmh ENE 4.6 mph7.4 kmh 29.97 in1014.9 mb - 0.00 in0.0 mm 0.36 in9.1 mm
02:05 PM 74.2°F23.4°C 57.0°F13.9°C 55% 3.5 mph E5.6 kmh E 3.5 mph5.6 kmh 29.96 in1014.6 mb - 0.00 in0.0 mm 0.36 in9.1 mm
02:10 PM 74.7°F23.7°C 57.9°F14.4°C 56% 3.5 mph NNE5.6 kmh NNE 10.4 mph16.7 kmh 29.96 in1014.6 mb - 0.00 in0.0 mm 0.36 in9.1 mm
02:15 PM 74.9°F23.8°C 57.1°F13.9°C 54% 2.3 mph ENE3.7 kmh ENE 2.3 mph3.7 kmh 29.96 in1014.6 mb - 0.00 in0.0 mm 0.36 in9.1 mm
02:20 PM 75.3°F24.1°C 57.5°F14.2°C 54% 3.5 mph NE5.6 kmh NE 4.6 mph7.4 kmh 29.96 in1014.6 mb - 0.00 in0.0 mm 0.36 in9.1 mm
02:25 PM 75.6°F24.2°C 57.7°F14.3°C 54% 3.5 mph NE5.6 kmh NE 3.5 mph5.6 kmh 29.96 in1014.6 mb - 0.00 in0.0 mm 0.36 in9.1 mm
02:30 PM 75.8°F24.3°C 57.4°F14.1°C 53% 5.8 mph NE9.3 kmh NE 5.8 mph9.3 kmh 29.96 in1014.6 mb - 0.00 in0.0 mm 0.36 in9.1 mm
02:35 PM 75.8°F24.3°C 56.9°F13.8°C 52% 2.3 mph NE3.7 kmh NE 3.5 mph5.6 kmh 29.95 in1014.2 mb - 0.00 in0.0 mm 0.36 in9.1 mm
02:40 PM 75.6°F24.2°C 57.2°F14.0°C 53% 1.2 mph NE1.9 kmh NE 3.5 mph5.6 kmh 29.95 in1014.2 mb - 0.00 in0.0 mm 0.36 in9.1 mm
02:45 PM 75.6°F24.2°C 57.8°F14.3°C 54% 3.5 mph NE5.6 kmh NE 5.8 mph9.3 kmh 29.95 in1014.2 mb - 0.00 in0.0 mm 0.36 in9.1 mm
02:50 PM 75.6°F24.2°C 57.3°F14.1°C 53% 4.6 mph ENE7.4 kmh ENE 6.9 mph11.1 kmh 29.95 in1014.2 mb - 0.00 in0.0 mm 0.36 in9.1 mm
02:55 PM 75.2°F24.0°C 57.4°F14.1°C 54% 1.2 mph NE1.9 kmh NE 10.4 mph16.7 kmh 29.95 in1014.2 mb - 0.00 in0.0 mm 0.36 in9.1 mm
03:00 PM 75.5°F24.2°C 57.2°F14.0°C 53% 4.6 mph E7.4 kmh E 9.2 mph14.8 kmh 29.95 in1014.2 mb - 0.00 in0.0 mm 0.36 in9.1 mm
03:05 PM 75.7°F24.3°C 57.4°F14.1°C 53% 2.3 mph NE3.7 kmh NE 2.3 mph3.7 kmh 29.95 in1014.2 mb - 0.00 in0.0 mm 0.36 in9.1 mm
03:10 PM 75.0°F23.9°C 56.7°F13.7°C 53% 2.3 mph ESE3.7 kmh ESE 5.8 mph9.3 kmh 29.95 in1014.2 mb - 0.00 in0.0 mm 0.36 in9.1 mm
03:15 PM 74.3°F23.5°C 57.1°F13.9°C 55% 3.5 mph N5.6 kmh N 4.6 mph7.4 kmh 29.95 in1014.2 mb - 0.00 in0.0 mm 0.36 in9.1 mm
03:20 PM 75.0°F23.9°C 57.8°F14.3°C 55% 2.3 mph E3.7 kmh E 4.6 mph7.4 kmh 29.94 in1013.9 mb - 0.00 in0.0 mm 0.36 in9.1 mm
03:25 PM 75.7°F24.3°C 57.9°F14.4°C 54% 3.5 mph NE5.6 kmh NE 4.6 mph7.4 kmh 29.94 in1013.9 mb - 0.00 in0.0 mm 0.36 in9.1 mm
03:30 PM 76.1°F24.5°C 57.2°F14.0°C 52% 2.3 mph NE3.7 kmh NE 4.6 mph7.4 kmh 29.94 in1013.9 mb - 0.00 in0.0 mm 0.36 in9.1 mm
03:35 PM 75.6°F24.2°C 56.2°F13.4°C 51% 1.2 mph NNE1.9 kmh NNE 3.5 mph5.6 kmh 29.94 in1013.9 mb - 0.00 in0.0 mm 0.36 in9.1 mm
03:40 PM 75.6°F24.2°C 57.3°F14.1°C 53% 2.3 mph E3.7 kmh E 5.8 mph9.3 kmh 29.94 in1013.9 mb - 0.00 in0.0 mm 0.36 in9.1 mm
03:45 PM 75.5°F24.2°C 57.2°F14.0°C 53% 3.5 mph NE5.6 kmh NE 5.8 mph9.3 kmh 29.94 in1013.9 mb - 0.00 in0.0 mm 0.36 in9.1 mm
03:50 PM 75.2°F24.0°C 57.4°F14.1°C 54% 1.2 mph NE1.9 kmh NE 2.3 mph3.7 kmh 29.94 in1013.9 mb - 0.00 in0.0 mm 0.36 in9.1 mm
03:55 PM 75.0°F23.9°C 57.2°F14.0°C 54% 3.5 mph SE5.6 kmh SE 4.6 mph7.4 kmh 29.94 in1013.9 mb - 0.00 in0.0 mm 0.36 in9.1 mm
04:00 PM 74.7°F23.7°C 58.0°F14.4°C 56% 3.5 mph E5.6 kmh E 4.6 mph7.4 kmh 29.93 in1013.5 mb - 0.00 in0.0 mm 0.36 in9.1 mm
04:05 PM 74.7°F23.7°C 56.4°F13.6°C 53% Calm Calm -- 29.94 in1013.9 mb - 0.00 in0.0 mm 0.36 in9.1 mm
04:10 PM 74.4°F23.6°C 56.6°F13.7°C 54% 2.3 mph SE3.7 kmh SE 3.5 mph5.6 kmh 29.94 in1013.9 mb - 0.00 in0.0 mm 0.36 in9.1 mm
04:15 PM 74.1°F23.4°C 56.9°F13.8°C 55% 3.5 mph SE5.6 kmh SE 4.6 mph7.4 kmh 29.94 in1013.9 mb - 0.00 in0.0 mm 0.36 in9.1 mm
04:20 PM 73.8°F23.2°C 56.6°F13.7°C 55% 1.2 mph ESE1.9 kmh ESE 1.2 mph1.9 kmh 29.94 in1013.9 mb - 0.00 in0.0 mm 0.36 in9.1 mm
04:25 PM 73.9°F23.3°C 57.2°F14.0°C 56% 1.2 mph E1.9 kmh E 3.5 mph5.6 kmh 29.94 in1013.9 mb - 0.00 in0.0 mm 0.36 in9.1 mm
04:30 PM 73.9°F23.3°C 56.7°F13.7°C 55% 2.3 mph ESE3.7 kmh ESE 3.5 mph5.6 kmh 29.94 in1013.9 mb - 0.00 in0.0 mm 0.36 in9.1 mm
04:35 PM 73.8°F23.2°C 56.6°F13.7°C 55% 2.3 mph SE3.7 kmh SE 3.5 mph5.6 kmh 29.94 in1013.9 mb - 0.00 in0.0 mm 0.36 in9.1 mm
04:40 PM 73.7°F23.2°C 56.0°F13.3°C 54% Calm Calm 2.3 mph3.7 kmh 29.94 in1013.9 mb - 0.00 in0.0 mm 0.36 in9.1 mm
04:45 PM 73.6°F23.1°C 55.9°F13.3°C 54% 2.3 mph S3.7 kmh S 3.5 mph5.6 kmh 29.94 in1013.9 mb - 0.00 in0.0 mm 0.36 in9.1 mm
04:50 PM 73.5°F23.1°C 55.8°F13.2°C 54% 2.3 mph SE3.7 kmh SE 3.5 mph5.6 kmh 29.94 in1013.9 mb - 0.00 in0.0 mm 0.36 in9.1 mm
04:55 PM 73.3°F22.9°C 56.2°F13.4°C 55% Calm Calm 2.3 mph3.7 kmh 29.94 in1013.9 mb - 0.00 in0.0 mm 0.36 in9.1 mm
05:00 PM 73.2°F22.9°C 57.0°F13.9°C 57% Calm Calm 1.2 mph1.9 kmh 29.94 in1013.9 mb - 0.00 in0.0 mm 0.36 in9.1 mm
05:05 PM 73.0°F22.8°C 56.9°F13.8°C 57% Calm Calm 1.2 mph1.9 kmh 29.94 in1013.9 mb - 0.00 in0.0 mm 0.36 in9.1 mm
05:10 PM 72.9°F22.7°C 57.3°F14.1°C 58% Calm Calm -- 29.94 in1013.9 mb - 0.00 in0.0 mm 0.36 in9.1 mm
05:15 PM 72.7°F22.6°C 57.1°F13.9°C 58% Calm Calm -- 29.94 in1013.9 mb - 0.00 in0.0 mm 0.36 in9.1 mm
05:20 PM 72.6°F22.6°C 57.0°F13.9°C 58% Calm Calm -- 29.93 in1013.5 mb - 0.00 in0.0 mm 0.36 in9.1 mm
05:25 PM 72.5°F22.5°C 56.9°F13.8°C 58% Calm Calm -- 29.93 in1013.5 mb - 0.00 in0.0 mm 0.36 in9.1 mm
05:30 PM 72.4°F22.4°C 57.3°F14.1°C 59% Calm Calm -- 29.93 in1013.5 mb - 0.00 in0.0 mm 0.36 in9.1 mm
05:35 PM 72.3°F22.4°C 57.2°F14.0°C 59% Calm Calm -- 29.92 in1013.2 mb - 0.00 in0.0 mm 0.36 in9.1 mm
05:40 PM 72.3°F22.4°C 58.1°F14.5°C 61% Calm Calm -- 29.92 in1013.2 mb - 0.00 in0.0 mm 0.36 in9.1 mm
05:45 PM 72.2°F22.3°C 58.0°F14.4°C 61% Calm Calm -- 29.93 in1013.5 mb - 0.00 in0.0 mm 0.36 in9.1 mm
05:50 PM 72.1°F22.3°C 58.8°F14.9°C 63% Calm Calm -- 29.93 in1013.5 mb - 0.00 in0.0 mm 0.36 in9.1 mm
05:55 PM 72.0°F22.2°C 58.3°F14.6°C 62% Calm Calm 2.3 mph3.7 kmh 29.93 in1013.5 mb - 0.00 in0.0 mm 0.36 in9.1 mm
06:00 PM 71.8°F22.1°C 59.8°F15.4°C 66% 2.3 mph NNW3.7 kmh NNW 2.3 mph3.7 kmh 29.93 in1013.5 mb - 0.00 in0.0 mm 0.36 in9.1 mm
06:05 PM 71.5°F21.9°C 60.4°F15.8°C 68% Calm Calm 2.3 mph3.7 kmh 29.93 in1013.5 mb - 0.00 in0.0 mm 0.36 in9.1 mm
06:10 PM 71.2°F21.8°C 61.3°F16.3°C 71% 1.2 mph N1.9 kmh N 3.5 mph5.6 kmh 29.93 in1013.5 mb - 0.00 in0.0 mm 0.36 in9.1 mm
06:15 PM 70.9°F21.6°C 61.0°F16.1°C 71% 1.2 mph N1.9 kmh N 3.5 mph5.6 kmh 29.92 in1013.2 mb - 0.00 in0.0 mm 0.36 in9.1 mm
06:20 PM 70.7°F21.5°C 61.2°F16.2°C 72% 3.5 mph N5.6 kmh N 4.6 mph7.4 kmh 29.92 in1013.2 mb - 0.00 in0.0 mm 0.36 in9.1 mm
06:25 PM 70.4°F21.3°C 59.3°F15.2°C 68% 2.3 mph N3.7 kmh N 3.5 mph5.6 kmh 29.92 in1013.2 mb - 0.00 in0.0 mm 0.36 in9.1 mm
06:30 PM 70.2°F21.2°C 59.6°F15.3°C 69% 1.2 mph N1.9 kmh N 3.5 mph5.6 kmh 29.92 in1013.2 mb - 0.00 in0.0 mm 0.36 in9.1 mm
06:35 PM 69.9°F21.1°C 59.3°F15.2°C 69% 2.3 mph N3.7 kmh N 3.5 mph5.6 kmh 29.92 in1013.2 mb - 0.00 in0.0 mm 0.36 in9.1 mm
06:40 PM 69.8°F21.0°C 59.1°F15.1°C 69% 1.2 mph NNE1.9 kmh NNE 3.5 mph5.6 kmh 29.92 in1013.2 mb - 0.00 in0.0 mm 0.36 in9.1 mm
06:45 PM 69.6°F20.9°C 59.4°F15.2°C 70% 1.2 mph NNE1.9 kmh NNE 2.3 mph3.7 kmh 29.92 in1013.2 mb - 0.00 in0.0 mm 0.36 in9.1 mm
06:50 PM 69.5°F20.8°C 59.3°F15.2°C 70% 2.3 mph NNE3.7 kmh NNE 3.5 mph5.6 kmh 29.92 in1013.2 mb - 0.00 in0.0 mm 0.36 in9.1 mm
06:55 PM 69.3°F20.7°C 59.1°F15.1°C 70% 3.5 mph N5.6 kmh N 3.5 mph5.6 kmh 29.92 in1013.2 mb - 0.00 in0.0 mm 0.36 in9.1 mm
07:00 PM 69.0°F20.6°C 58.8°F14.9°C 70% 2.3 mph NNE3.7 kmh NNE 3.5 mph5.6 kmh 29.92 in1013.2 mb - 0.00 in0.0 mm 0.36 in9.1 mm
07:05 PM 68.7°F20.4°C 58.5°F14.7°C 70% 3.5 mph N5.6 kmh N 5.8 mph9.3 kmh 29.93 in1013.5 mb - 0.00 in0.0 mm 0.36 in9.1 mm
07:10 PM 68.4°F20.2°C 58.2°F14.6°C 70% 3.5 mph N5.6 kmh N 4.6 mph7.4 kmh 29.92 in1013.2 mb - 0.00 in0.0 mm 0.36 in9.1 mm
07:15 PM 68.2°F20.1°C 58.0°F14.4°C 70% 4.6 mph NE7.4 kmh NE 5.8 mph9.3 kmh 29.92 in1013.2 mb - 0.00 in0.0 mm 0.36 in9.1 mm
07:20 PM 68.1°F20.1°C 57.5°F14.2°C 69% 2.3 mph NE3.7 kmh NE 3.5 mph5.6 kmh 29.92 in1013.2 mb - 0.00 in0.0 mm 0.36 in9.1 mm
07:25 PM 68.0°F20.0°C 57.5°F14.2°C 69% 1.2 mph NE1.9 kmh NE 3.5 mph5.6 kmh 29.93 in1013.5 mb - 0.00 in0.0 mm 0.36 in9.1 mm
07:30 PM 68.1°F20.1°C 57.5°F14.2°C 69% Calm Calm 1.2 mph1.9 kmh 29.93 in1013.5 mb - 0.00 in0.0 mm 0.36 in9.1 mm
07:35 PM 68.1°F20.1°C 57.9°F14.4°C 70% Calm Calm 1.2 mph1.9 kmh 29.93 in1013.5 mb - 0.00 in0.0 mm 0.36 in9.1 mm
07:40 PM 68.2°F20.1°C 58.0°F14.4°C 70% Calm Calm -- 29.93 in1013.5 mb - 0.00 in0.0 mm 0.36 in9.1 mm
07:45 PM 68.1°F20.1°C 58.3°F14.6°C 71% Calm Calm -- 29.93 in1013.5 mb - 0.00 in0.0 mm 0.36 in9.1 mm
07:50 PM 68.1°F20.1°C 58.7°F14.8°C 72% Calm Calm -- 29.93 in1013.5 mb - 0.00 in0.0 mm 0.36 in9.1 mm
07:55 PM 68.0°F20.0°C 59.8°F15.4°C 75% Calm Calm -- 29.93 in1013.5 mb - 0.01 in0.3 mm 0.37 in9.4 mm
08:00 PM 67.7°F19.8°C 59.5°F15.3°C 75% Calm Calm -- 29.93 in1013.5 mb - 0.01 in0.3 mm 0.38 in9.7 mm
08:05 PM 67.5°F19.7°C 58.9°F14.9°C 74% Calm Calm -- 29.93 in1013.5 mb - 0.00 in0.0 mm 0.38 in9.7 mm
08:10 PM 67.3°F19.6°C 60.2°F15.7°C 78% Calm Calm -- 29.92 in1013.2 mb - 0.01 in0.3 mm 0.39 in9.9 mm
08:15 PM 67.0°F19.4°C 60.6°F15.9°C 80% Calm Calm -- 29.93 in1013.5 mb - 0.00 in0.0 mm 0.39 in9.9 mm
08:20 PM 66.5°F19.2°C 60.1°F15.6°C 80% Calm Calm -- 29.93 in1013.5 mb - 0.00 in0.0 mm 0.39 in9.9 mm
08:25 PM 66.1°F18.9°C 60.4°F15.8°C 82% Calm Calm -- 29.93 in1013.5 mb - 0.00 in0.0 mm 0.39 in9.9 mm
08:30 PM 65.9°F18.8°C 60.6°F15.9°C 83% Calm Calm -- 29.93 in1013.5 mb - 0.00 in0.0 mm 0.39 in9.9 mm
08:35 PM 65.7°F18.7°C 60.0°F15.6°C 82% Calm Calm -- 29.93 in1013.5 mb - 0.00 in0.0 mm 0.39 in9.9 mm
08:40 PM 65.5°F18.6°C 59.9°F15.5°C 82% Calm Calm -- 29.93 in1013.5 mb - 0.00 in0.0 mm 0.39 in9.9 mm
08:45 PM 65.4°F18.6°C 60.4°F15.8°C 84% Calm Calm -- 29.93 in1013.5 mb - 0.00 in0.0 mm 0.39 in9.9 mm
08:50 PM 65.2°F18.4°C 60.2°F15.7°C 84% Calm Calm -- 29.93 in1013.5 mb - 0.00 in0.0 mm 0.39 in9.9 mm
08:55 PM 65.1°F18.4°C 60.8°F16.0°C 86% Calm Calm -- 29.94 in1013.9 mb - 0.00 in0.0 mm 0.39 in9.9 mm
09:00 PM 64.9°F18.3°C 60.6°F15.9°C 86% Calm Calm -- 29.93 in1013.5 mb - 0.00 in0.0 mm 0.39 in9.9 mm
09:05 PM 64.7°F18.2°C 60.4°F15.8°C 86% Calm Calm -- 29.93 in1013.5 mb - 0.00 in0.0 mm 0.39 in9.9 mm
09:10 PM 64.5°F18.1°C 60.9°F16.1°C 88% Calm Calm 1.2 mph1.9 kmh 29.93 in1013.5 mb - 0.00 in0.0 mm 0.39 in9.9 mm
09:15 PM 64.4°F18.0°C 61.1°F16.2°C 89% Calm Calm 2.3 mph3.7 kmh 29.93 in1013.5 mb - 0.00 in0.0 mm 0.39 in9.9 mm
09:20 PM 64.3°F17.9°C 60.7°F15.9°C 88% Calm Calm -- 29.93 in1013.5 mb - 0.00 in0.0 mm 0.39 in9.9 mm
09:25 PM 64.2°F17.9°C 60.6°F15.9°C 88% Calm Calm -- 29.93 in1013.5 mb - 0.00 in0.0 mm 0.39 in9.9 mm
09:30 PM 64.1°F17.8°C 60.5°F15.8°C 88% 1.2 mph WSW1.9 kmh WSW 2.3 mph3.7 kmh 29.93 in1013.5 mb - 0.01 in0.3 mm 0.39 in9.9 mm
09:35 PM 64.0°F17.8°C 60.4°F15.8°C 88% Calm Calm -- 29.93 in1013.5 mb - 0.00 in0.0 mm 0.39 in9.9 mm
09:40 PM 64.0°F17.8°C 60.4°F15.8°C 88% Calm Calm -- 29.92 in1013.2 mb - 0.00 in0.0 mm 0.39 in9.9 mm
09:45 PM 63.9°F17.7°C 60.6°F15.9°C 89% Calm Calm -- 29.92 in1013.2 mb - 0.00 in0.0 mm 0.39 in9.9 mm
09:50 PM 63.8°F17.7°C 60.2°F15.7°C 88% Calm Calm -- 29.92 in1013.2 mb - 0.00 in0.0 mm 0.39 in9.9 mm
09:55 PM 63.8°F17.7°C 60.2°F15.7°C 88% Calm Calm -- 29.92 in1013.2 mb - 0.00 in0.0 mm 0.39 in9.9 mm
10:00 PM 63.8°F17.7°C 60.2°F15.7°C 88% Calm Calm 2.3 mph3.7 kmh 29.92 in1013.2 mb - 0.00 in0.0 mm 0.39 in9.9 mm
10:05 PM 63.8°F17.7°C 60.5°F15.8°C 89% 1.2 mph NW1.9 kmh NW 3.5 mph5.6 kmh 29.92 in1013.2 mb - 0.00 in0.0 mm 0.39 in9.9 mm
10:10 PM 63.8°F17.7°C 60.5°F15.8°C 89% Calm Calm 1.2 mph1.9 kmh 29.92 in1013.2 mb - 0.00 in0.0 mm 0.39 in9.9 mm
10:15 PM 63.8°F17.7°C 60.8°F16.0°C 90% Calm Calm -- 29.91 in1012.9 mb - 0.00 in0.0 mm 0.39 in9.9 mm
10:20 PM 63.8°F17.7°C 60.8°F16.0°C 90% Calm Calm -- 29.91 in1012.9 mb - 0.00 in0.0 mm 0.39 in9.9 mm
10:25 PM 63.7°F17.6°C 60.7°F15.9°C 90% Calm Calm 2.3 mph3.7 kmh 29.92 in1013.2 mb - 0.00 in0.0 mm 0.39 in9.9 mm
10:30 PM 63.7°F17.6°C 60.7°F15.9°C 90% Calm Calm -- 29.91 in1012.9 mb - 0.00 in0.0 mm 0.39 in9.9 mm
10:35 PM 63.8°F17.7°C 61.1°F16.2°C 91% Calm Calm -- 29.91 in1012.9 mb - 0.00 in0.0 mm 0.39 in9.9 mm
10:40 PM 63.8°F17.7°C 61.1°F16.2°C 91% Calm Calm -- 29.91 in1012.9 mb - 0.00 in0.0 mm 0.39 in9.9 mm
10:45 PM 63.8°F17.7°C 61.1°F16.2°C 91% Calm Calm -- 29.91 in1012.9 mb - 0.00 in0.0 mm 0.39 in9.9 mm
10:50 PM 63.8°F17.7°C 60.8°F16.0°C 90% Calm Calm -- 29.91 in1012.9 mb - 0.00 in0.0 mm 0.39 in9.9 mm
10:55 PM 63.8°F17.7°C 60.8°F16.0°C 90% Calm Calm -- 29.91 in1012.9 mb - 0.00 in0.0 mm 0.39 in9.9 mm
11:00 PM 63.8°F17.7°C 60.8°F16.0°C 90% Calm Calm -- 29.90 in1012.5 mb - 0.00 in0.0 mm 0.48 in12.2 mm
11:05 PM 63.8°F17.7°C 60.5°F15.8°C 89% Calm Calm 2.3 mph3.7 kmh 29.90 in1012.5 mb - 0.00 in0.0 mm 0.48 in12.2 mm
11:10 PM 63.8°F17.7°C 60.8°F16.0°C 90% Calm Calm 1.2 mph1.9 kmh 29.90 in1012.5 mb - 0.00 in0.0 mm 0.48 in12.2 mm
11:15 PM 63.8°F17.7°C 60.5°F15.8°C 89% 1.2 mph NNW1.9 kmh NNW 1.2 mph1.9 kmh 29.90 in1012.5 mb - 0.00 in0.0 mm 0.48 in12.2 mm
11:20 PM 63.8°F17.7°C 60.8°F16.0°C 90% Calm Calm -- 29.90 in1012.5 mb - 0.00 in0.0 mm 0.48 in12.2 mm
11:25 PM 63.8°F17.7°C 60.5°F15.8°C 89% Calm Calm -- 29.90 in1012.5 mb - 0.00 in0.0 mm 0.48 in12.2 mm
11:30 PM 63.8°F17.7°C 60.8°F16.0°C 90% Calm Calm 1.2 mph1.9 kmh 29.90 in1012.5 mb - 0.00 in0.0 mm 0.48 in12.2 mm
11:35 PM 63.7°F17.6°C 60.7°F15.9°C 90% Calm Calm 1.2 mph1.9 kmh 29.90 in1012.5 mb - 0.00 in0.0 mm 0.48 in12.2 mm
11:40 PM 63.7°F17.6°C 60.7°F15.9°C 90% Calm Calm 2.3 mph3.7 kmh 29.90 in1012.5 mb - 0.00 in0.0 mm 0.48 in12.2 mm
11:45 PM 63.6°F17.6°C 60.6°F15.9°C 90% Calm Calm 1.2 mph1.9 kmh 29.90 in1012.5 mb - 0.00 in0.0 mm 0.48 in12.2 mm
11:50 PM 63.6°F17.6°C 60.9°F16.1°C 91% Calm Calm 1.2 mph1.9 kmh 29.91 in1012.9 mb - 0.00 in0.0 mm 0.48 in12.2 mm
11:55 PM 63.6°F17.6°C 60.9°F16.1°C 91% Calm Calm -- 29.91 in1012.9 mb - 0.00 in0.0 mm 0.48 in12.2 mm